Terminal Aerodrome Forecast
Issued by NWS Riverton, WY

Home | Current Version | Previous Version | Text Only | Print | Product List | Glossary On
Versions: 1 2 3 4 5 6 7 8 9 10 11 12 13
000
FTUS45 KRIW 261726
TAFRIW
TAF
KRIW 261726Z 2618/2718 VRB06KT P6SM FEW110
     FM270000 03009KT P6SM VCSH SCT120
     FM270300 03011KT P6SM SCT120
     FM270900 34006KT P6SM SKC=

USA.gov is the U.S. government's official web portal to all federal, state and local government web resources and services.